Terminal Aerodrome Forecast
Issued by NWS Albany, NY

Home | Current Version | Previous Version | Text Only | Print | Product List | Glossary On
Versions: 1 2 3 4 5 6 7 8 9 10 11 12 13 14 15 16 17 18
492
FTUS41 KALY 280538
TAFGFL
TAF
KGFL 280538Z 2806/2906 00000KT P6SM SCT100 SCT250
     FM281200 VRB03KT P6SM SCT100 BKN250
     FM281700 18005KT P6SM SCT050 BKN200
     FM282000 19006KT P6SM VCSH BKN050 BKN200 PROB30 2820/2823 4SM
      -TSRA BR BKN050CB
     FM290100 VRB03KT P6SM SCT050 BKN200=

USA.gov is the U.S. government's official web portal to all federal, state and local government web resources and services.